Time;durP1;ratioP1;P1;durP2;ratioP2;P2;SDS_P1;SDS_P2;PMS_P1;PMS_P2;Temp;Humidity;BMP_temperature;BMP_pressure;BME280_temperature;BME280_humidity;BME280_pressure;Samples;Min_cycle;Max_cycle;Signal;HPM_P1;HPM_P2
2024/03/05 00:01:21;;;;;;;61.47;21.05;;;8.50;99.90;;;;;;5040986;28;20123;-77
2024/03/05 00:03:48;;;;;;;61.53;20.40;;;8.50;99.90;;;;;;5074023;28;20037;-77
2024/03/05 00:06:16;;;;;;;58.33;20.52;;;8.50;99.90;;;;;;5074604;28;20165;-77
2024/03/05 00:08:42;;;;;;;73.68;22.23;;;8.50;99.90;;;;;;5075201;28;20039;-77
2024/03/05 00:11:07;;;;;;;66.78;22.17;;;8.50;99.90;;;;;;5039193;28;20041;-77
2024/03/05 00:13:33;;;;;;;67.30;21.10;;;8.50;99.90;;;;;;5067353;28;20033;-77
2024/03/05 00:15:58;;;;;;;75.88;22.63;;;8.50;99.90;;;;;;5057393;28;20442;-77
2024/03/05 00:18:24;;;;;;;59.08;21.50;;;9.40;99.90;;;;;;5073766;28;20032;-77
2024/03/05 00:20:50;;;;;;;64.75;21.58;;;8.80;99.90;;;;;;5057672;28;20066;-77
2024/03/05 00:23:15;;;;;;;67.78;22.73;;;8.50;99.90;;;;;;5074995;28;20033;-77
2024/03/05 00:25:45;;;;;;;74.07;22.75;;;9.20;99.90;;;;;;5039072;28;20040;-77
2024/03/05 00:28:10;;;;;;;79.25;22.90;;;8.50;99.90;;;;;;5073406;28;20036;-77
2024/03/05 00:30:38;;;;;;;72.65;23.40;;;8.50;99.90;;;;;;5054884;28;20032;-77
2024/03/05 00:33:06;;;;;;;79.82;23.25;;;8.50;99.90;;;;;;5039151;28;20048;-77
2024/03/05 00:35:31;;;;;;;72.78;23.05;;;8.50;99.90;;;;;;5055062;28;20062;-77
2024/03/05 00:37:57;;;;;;;82.00;24.50;;;8.50;99.90;;;;;;5039500;28;20049;-77
2024/03/05 00:40:24;;;;;;;79.80;23.35;;;8.10;99.90;;;;;;5039840;28;20036;-77
2024/03/05 00:42:49;;;;;;;80.57;24.25;;;8.50;99.90;;;;;;5056929;28;20032;-77
2024/03/05 00:45:17;;;;;;;75.97;24.75;;;8.50;99.90;;;;;;5038287;28;20097;-77
2024/03/05 00:47:43;;;;;;;78.75;25.35;;;8.50;99.90;;;;;;5071378;28;20051;-77
2024/03/05 00:50:13;;;;;;;88.78;24.83;;;9.30;99.90;;;;;;5076009;28;20040;-77
2024/03/05 00:52:39;;;;;;;84.00;25.08;;;8.50;99.90;;;;;;5042994;28;20044;-77
2024/03/05 00:55:08;;;;;;;83.25;24.70;;;8.50;99.90;;;;;;5056774;28;20040;-77
2024/03/05 00:57:36;;;;;;;76.55;24.58;;;8.50;99.90;;;;;;5073529;28;20039;-77
2024/03/05 01:00:05;;;;;;;80.82;27.40;;;8.50;99.90;;;;;;5045911;28;20106;-77
2024/03/05 01:02:32;;;;;;;88.78;26.67;;;8.50;99.90;;;;;;5058021;28;20067;-77
2024/03/05 01:04:58;;;;;;;78.38;25.77;;;8.50;99.90;;;;;;5074666;28;20032;-77
2024/03/05 01:07:23;;;;;;;89.75;26.52;;;8.50;99.90;;;;;;5055774;28;20040;-77
2024/03/05 01:09:49;;;;;;;87.10;25.95;;;8.50;99.90;;;;;;5057084;28;20061;-77
2024/03/05 01:12:16;;;;;;;76.07;25.73;;;8.50;99.90;;;;;;5073353;28;20080;-77
2024/03/05 01:14:42;;;;;;;68.72;24.55;;;8.50;99.90;;;;;;5055740;28;20119;-77
2024/03/05 01:17:08;;;;;;;72.70;23.85;;;8.50;99.90;;;;;;5038168;28;20052;-77
2024/03/05 01:19:37;;;;;;;80.57;26.92;;;8.70;99.90;;;;;;5054843;28;20041;-77
2024/03/05 01:22:03;;;;;;;78.40;26.35;;;9.20;99.90;;;;;;5056589;28;20047;-77
2024/03/05 01:24:28;;;;;;;74.80;25.40;;;8.60;99.90;;;;;;5062642;28;20354;-77
2024/03/05 01:26:54;;;;;;;77.38;25.90;;;9.60;99.90;;;;;;5034386;28;20487;-77
2024/03/05 01:29:21;;;;;;;81.15;26.77;;;8.50;99.90;;;;;;5072105;28;20036;-77
2024/03/05 01:31:56;;;;;;;73.95;26.33;;;8.90;99.90;;;;;;5039776;28;20036;-77
2024/03/05 01:34:23;;;;;;;71.25;26.50;;;8.50;99.90;;;;;;5055141;28;20422;-77
2024/03/05 01:36:50;;;;;;;80.45;26.85;;;8.50;99.90;;;;;;5073243;28;20406;-77
2024/03/05 01:39:21;;;;;;;80.43;26.75;;;8.50;99.90;;;;;;5054425;28;20087;-77
2024/03/05 01:41:46;;;;;;;75.47;26.35;;;8.50;99.90;;;;;;5056950;28;20502;-77
2024/03/05 01:44:15;;;;;;;76.32;27.02;;;9.30;99.90;;;;;;5054630;28;20044;-77
2024/03/05 01:47:10;;;;;;;80.88;26.75;;;8.50;99.90;;;;;;5062316;28;20075;-76
2024/03/05 01:49:36;;;;;;;79.30;25.30;;;8.50;99.90;;;;;;5041524;28;20055;-76
2024/03/05 01:52:03;;;;;;;75.60;27.00;;;8.50;99.90;;;;;;5038652;28;20434;-76
2024/03/05 01:54:29;;;;;;;75.32;27.08;;;8.50;99.90;;;;;;5074496;28;20453;-76
2024/03/05 01:57:02;;;;;;;79.60;27.10;;;8.50;99.90;;;;;;5054619;28;20038;-76
2024/03/05 01:59:40;;;;;;;74.40;25.55;;;9.30;99.90;;;;;;5051197;28;20044;-76
2024/03/05 02:02:23;;;;;;;77.07;27.52;;;8.50;99.90;;;;;;5054026;28;20033;-76
2024/03/05 02:04:51;;;;;;;79.18;26.27;;;8.50;99.90;;;;;;5053997;28;20089;-76
2024/03/05 02:07:27;;;;;;;81.60;27.17;;;9.40;99.90;;;;;;5061147;28;20028;-76
2024/03/05 02:09:55;;;;;;;68.63;25.10;;;8.50;99.90;;;;;;5054741;28;20040;-76
2024/03/05 02:12:21;;;;;;;69.60;25.63;;;8.50;99.90;;;;;;5051456;28;20044;-76
2024/03/05 02:14:48;;;;;;;80.32;27.35;;;8.70;99.90;;;;;;5056692;28;20498;-76
2024/03/05 02:17:16;;;;;;;78.18;27.08;;;8.50;99.90;;;;;;5051816;28;20482;-76
2024/03/05 02:19:52;;;;;;;68.63;26.92;;;8.50;99.90;;;;;;5057849;28;20044;-77
2024/03/05 02:22:18;;;;;;;74.80;25.52;;;8.50;99.90;;;;;;5058852;28;20115;-77
2024/03/05 02:24:43;;;;;;;76.28;28.02;;;8.50;99.90;;;;;;5060013;28;20064;-77
2024/03/05 02:27:12;;;;;;;68.82;26.20;;;9.20;99.90;;;;;;5053342;28;20040;-77
2024/03/05 02:29:38;;;;;;;71.20;26.25;;;8.50;99.90;;;;;;5042472;28;20558;-76
2024/03/05 02:32:33;;;;;;;79.80;26.67;;;8.50;99.90;;;;;;5071810;28;20033;-76
2024/03/05 02:35:08;;;;;;;75.13;25.98;;;8.50;99.90;;;;;;5039341;28;20033;-76
2024/03/05 02:37:37;;;;;;;75.93;26.35;;;8.50;99.90;;;;;;5070828;28;20135;-76
2024/03/05 02:40:05;;;;;;;79.72;28.83;;;9.50;99.90;;;;;;5071747;28;20574;-76
2024/03/05 02:42:31;;;;;;;81.35;26.83;;;8.50;99.90;;;;;;5058634;28;20029;-76
2024/03/05 02:44:57;;;;;;;80.15;26.85;;;8.50;99.90;;;;;;5053956;28;20036;-76
2024/03/05 02:47:24;;;;;;;79.78;28.92;;;9.00;99.90;;;;;;5069468;28;20036;-77
2024/03/05 02:49:50;;;;;;;70.85;26.02;;;8.50;99.90;;;;;;5053332;28;20043;-77
2024/03/05 02:52:16;;;;;;;87.00;27.17;;;9.30;99.90;;;;;;5070336;28;20135;-77
2024/03/05 02:54:43;;;;;;;64.88;25.45;;;8.80;99.90;;;;;;5054103;28;20048;-77
2024/03/05 02:57:08;;;;;;;67.97;25.45;;;7.70;99.90;;;;;;5036651;28;20586;-77
2024/03/05 02:59:36;;;;;;;76.75;26.30;;;8.50;99.90;;;;;;5036723;28;20074;-77
2024/03/05 03:02:03;;;;;;;74.10;25.25;;;8.50;99.90;;;;;;5053613;28;20036;-77
2024/03/05 03:04:29;;;;;;;71.35;24.92;;;8.50;99.90;;;;;;5057173;28;20117;-77
2024/03/05 03:06:58;;;;;;;70.93;25.85;;;8.50;99.90;;;;;;5040917;28;20086;-77
2024/03/05 03:09:23;;;;;;;74.43;26.27;;;8.50;99.90;;;;;;5059197;28;20402;-77
2024/03/05 03:11:51;;;;;;;68.65;24.08;;;8.50;99.90;;;;;;5075461;28;20028;-77
2024/03/05 03:14:18;;;;;;;64.72;25.42;;;8.20;99.90;;;;;;5057157;28;20040;-76
2024/03/05 03:16:46;;;;;;;71.25;25.33;;;8.50;99.90;;;;;;5059409;28;20032;-76
2024/03/05 03:19:12;;;;;;;67.72;24.83;;;9.00;99.90;;;;;;5041089;28;20505;-76
2024/03/05 03:21:39;;;;;;;75.65;26.77;;;8.00;99.90;;;;;;5074426;28;20036;-76
2024/03/05 03:24:11;;;;;;;69.45;24.52;;;8.40;99.90;;;;;;5058931;28;20051;-77
2024/03/05 03:26:37;;;;;;;72.93;25.85;;;8.40;99.90;;;;;;5058876;28;20029;-77
2024/03/05 03:29:11;;;;;;;68.60;24.88;;;8.50;99.90;;;;;;5074633;28;20048;-77
2024/03/05 03:31:56;;;;;;;69.72;25.73;;;8.40;99.90;;;;;;5057126;28;20041;-77
2024/03/05 03:34:23;;;;;;;65.05;24.90;;;8.50;99.90;;;;;;5043126;28;20372;-77
2024/03/05 03:36:48;;;;;;;73.85;26.77;;;8.40;99.90;;;;;;5043714;28;20040;-77
2024/03/05 03:39:23;;;;;;;64.55;24.90;;;9.10;99.90;;;;;;5058504;28;20453;-77
2024/03/05 03:41:54;;;;;;;72.43;25.27;;;8.40;99.90;;;;;;5076687;28;20032;-77
2024/03/05 03:44:23;;;;;;;72.20;27.60;;;8.40;99.90;;;;;;5074732;28;20082;-77
2024/03/05 03:47:00;;;;;;;67.72;25.25;;;8.50;99.90;;;;;;5074677;28;20517;-77
2024/03/05 03:49:27;;;;;;;72.38;27.35;;;8.50;99.90;;;;;;5036256;28;20101;-76
2024/03/05 03:51:53;;;;;;;66.60;24.25;;;8.50;99.90;;;;;;5075575;28;20283;-76
2024/03/05 03:54:21;;;;;;;71.18;25.13;;;9.70;99.90;;;;;;5059059;28;20032;-76
2024/03/05 03:56:48;;;;;;;66.10;25.10;;;8.50;99.90;;;;;;5058422;28;20514;-76
2024/03/05 03:59:14;;;;;;;66.45;24.95;;;9.50;99.90;;;;;;5074099;28;20487;-76
2024/03/05 04:01:46;;;;;;;63.28;24.58;;;9.50;99.90;;;;;;5042188;28;20036;-76
2024/03/05 04:04:12;;;;;;;62.78;25.00;;;9.70;99.90;;;;;;5048450;28;20048;-76
2024/03/05 04:06:42;;;;;;;65.50;25.63;;;9.70;99.90;;;;;;5040082;28;20406;-76
2024/03/05 04:09:13;;;;;;;60.78;24.80;;;9.60;99.90;;;;;;5059338;28;20063;-76
2024/03/05 04:11:47;;;;;;;65.88;26.42;;;8.40;99.90;;;;;;5058142;28;20033;-76
2024/03/05 04:14:13;;;;;;;56.33;24.42;;;8.40;99.90;;;;;;5075057;28;20051;-76
2024/03/05 04:16:40;;;;;;;64.85;24.52;;;9.10;99.90;;;;;;5046046;28;20120;-76
2024/03/05 04:19:07;;;;;;;64.88;24.88;;;8.50;99.90;;;;;;5038569;28;20044;-76
2024/03/05 04:21:44;;;;;;;54.35;24.98;;;8.40;99.90;;;;;;5066825;28;20098;-76
2024/03/05 04:24:13;;;;;;;63.15;23.92;;;8.50;99.90;;;;;;5056327;28;20044;-76
2024/03/05 04:26:47;;;;;;;62.88;24.33;;;8.50;99.90;;;;;;5074808;28;20043;-76
2024/03/05 04:29:29;;;;;;;56.80;24.08;;;8.50;99.90;;;;;;5055452;28;20044;-76
2024/03/05 04:32:08;;;;;;;57.05;24.02;;;9.60;99.90;;;;;;5075274;28;20048;-76
2024/03/05 04:35:00;;;;;;;60.25;24.63;;;8.50;99.90;;;;;;5059429;28;20029;-76
2024/03/05 04:37:30;;;;;;;57.40;25.52;;;8.50;99.90;;;;;;5052679;28;20120;-76
2024/03/05 04:39:57;;;;;;;62.75;24.85;;;8.50;99.90;;;;;;5076071;28;20479;-76
2024/03/05 04:42:23;;;;;;;55.88;24.63;;;9.10;99.90;;;;;;5044193;28;20040;-77
2024/03/05 04:44:53;;;;;;;55.58;23.35;;;8.50;99.90;;;;;;5073394;28;20400;-77
2024/03/05 04:47:24;;;;;;;58.75;24.33;;;8.50;99.90;;;;;;5073258;28;20422;-77
2024/03/05 04:49:50;;;;;;;58.73;25.10;;;8.50;99.90;;;;;;5037484;28;20032;-77
2024/03/05 04:52:15;;;;;;;55.72;23.05;;;8.30;99.90;;;;;;5072599;28;20283;-77
2024/03/05 04:54:41;;;;;;;59.50;23.83;;;8.70;99.90;;;;;;5072778;28;20033;-77
2024/03/05 04:57:08;;;;;;;53.25;24.13;;;8.80;99.90;;;;;;5074087;28;20062;-76
2024/03/05 04:59:34;;;;;;;54.38;24.40;;;8.50;99.90;;;;;;5054363;28;20052;-76
2024/03/05 05:02:13;;;;;;;59.60;24.42;;;9.30;99.90;;;;;;5041464;28;20036;-76
2024/03/05 05:04:41;;;;;;;58.95;23.85;;;9.50;99.90;;;;;;5073440;28;20040;-77
2024/03/05 05:07:21;;;;;;;49.15;22.40;;;9.60;99.90;;;;;;5072062;28;20033;-77
2024/03/05 05:09:49;;;;;;;49.88;22.88;;;8.50;99.90;;;;;;5074457;28;20135;-76
2024/03/05 05:12:15;;;;;;;47.83;21.50;;;8.50;99.90;;;;;;5072371;28;20515;-76
2024/03/05 05:14:43;;;;;;;52.88;23.38;;;9.10;99.90;;;;;;5038303;28;20115;-76
2024/03/05 05:17:12;;;;;;;51.25;22.67;;;8.50;99.90;;;;;;5073716;28;20047;-76
2024/03/05 05:19:37;;;;;;;49.95;22.80;;;8.40;99.90;;;;;;5054812;28;20107;-76
2024/03/05 05:22:04;;;;;;;47.20;22.10;;;8.40;99.90;;;;;;5058555;28;20271;-76
2024/03/05 05:24:31;;;;;;;48.92;22.20;;;8.40;99.90;;;;;;5074448;28;20037;-77
2024/03/05 05:26:57;;;;;;;49.88;22.95;;;8.40;99.90;;;;;;5054940;28;20036;-76
2024/03/05 05:29:25;;;;;;;48.70;22.75;;;9.30;99.90;;;;;;5037576;28;20036;-76
2024/03/05 05:31:54;;;;;;;48.72;22.25;;;8.40;99.90;;;;;;5071857;28;20125;-76
2024/03/05 05:34:24;;;;;;;51.88;22.75;;;8.40;99.90;;;;;;5070332;28;20067;-76
2024/03/05 05:36:50;;;;;;;49.35;21.90;;;8.30;99.90;;;;;;5068104;28;20047;-76
2024/03/05 05:39:21;;;;;;;49.00;22.30;;;8.40;99.90;;;;;;5066704;28;20481;-76
2024/03/05 05:41:47;;;;;;;50.08;21.77;;;8.40;99.90;;;;;;5053577;28;20471;-76
2024/03/05 05:44:13;;;;;;;50.10;22.85;;;8.40;99.90;;;;;;5054010;28;20072;-76
2024/03/05 05:46:41;;;;;;;44.58;20.92;;;8.40;99.90;;;;;;5054377;28;20122;-76
2024/03/05 05:49:19;;;;;;;49.28;23.27;;;8.30;99.90;;;;;;5053356;28;20453;-76
2024/03/05 05:51:48;;;;;;;49.55;21.20;;;8.90;99.90;;;;;;5071493;28;20040;-76
2024/03/05 05:54:18;;;;;;;44.20;20.58;;;8.30;99.90;;;;;;5054149;28;20037;-76
2024/03/05 05:56:43;;;;;;;46.83;21.15;;;8.30;99.90;;;;;;5037396;28;20384;-76
2024/03/05 05:59:09;;;;;;;48.97;21.38;;;8.30;99.90;;;;;;5053810;28;20086;-76
2024/03/05 06:01:37;;;;;;;46.10;20.70;;;8.30;99.90;;;;;;5036932;28;20453;-77
2024/03/05 06:04:06;;;;;;;44.78;21.92;;;8.30;99.90;;;;;;5041116;28;20036;-76
2024/03/05 06:06:38;;;;;;;48.80;22.13;;;8.30;99.90;;;;;;5023463;28;20112;-77
2024/03/05 06:09:08;;;;;;;49.80;23.02;;;8.30;99.90;;;;;;5051129;28;20041;-77
2024/03/05 06:11:41;;;;;;;51.17;21.08;;;8.90;99.90;;;;;;5037163;28;20490;-76
2024/03/05 06:14:06;;;;;;;49.30;22.08;;;8.30;99.90;;;;;;5037680;28;20048;-76
2024/03/05 06:16:33;;;;;;;48.83;22.48;;;8.30;99.90;;;;;;5055287;28;20036;-76
2024/03/05 06:19:02;;;;;;;54.35;22.75;;;8.30;99.90;;;;;;5053745;28;20036;-77
2024/03/05 06:21:27;;;;;;;58.35;22.92;;;8.20;99.90;;;;;;5049202;28;20102;-75
2024/03/05 06:23:53;;;;;;;54.50;23.23;;;8.20;99.90;;;;;;5056512;28;20024;-75
2024/03/05 06:26:19;;;;;;;57.45;23.73;;;8.90;99.90;;;;;;5072739;28;20028;-75
2024/03/05 06:28:45;;;;;;;53.55;23.30;;;8.20;99.90;;;;;;5073133;28;20036;-76
2024/03/05 06:31:11;;;;;;;60.50;23.92;;;8.20;99.90;;;;;;5073639;28;20553;-76
2024/03/05 06:33:37;;;;;;;53.47;23.20;;;8.20;99.90;;;;;;5052417;28;20072;-76
2024/03/05 06:36:06;;;;;;;55.28;23.75;;;8.20;99.90;;;;;;5037679;28;20049;-76
2024/03/05 06:38:39;;;;;;;55.40;23.90;;;8.30;99.90;;;;;;5037370;28;20036;-76
2024/03/05 06:41:05;;;;;;;55.35;24.20;;;9.00;99.90;;;;;;5051125;28;20473;-76
2024/03/05 06:43:37;;;;;;;52.63;22.88;;;8.30;99.90;;;;;;5036563;28;20120;-76
2024/03/05 06:46:04;;;;;;;;;;;8.30;99.90;;;;;;5057743;28;20079;-76
2024/03/05 06:48:32;;;;;;;51.17;22.40;;;8.20;99.90;;;;;;5054809;28;20077;-76
2024/03/05 06:51:04;;;;;;;48.72;21.77;;;8.30;99.90;;;;;;5034216;28;20045;-76
2024/03/05 06:59:03;;;;;;;48.92;23.40;;;8.40;99.90;;;;;;5052927;28;20060;-76
2024/03/05 07:01:29;;;;;;;49.90;23.45;;;8.40;99.90;;;;;;5037570;28;20040;-76
2024/03/05 07:03:54;;;;;;;49.70;21.65;;;8.50;99.90;;;;;;5055903;28;20040;-76
2024/03/05 07:06:21;;;;;;;48.53;22.75;;;8.50;99.90;;;;;;5071300;28;20086;-76
2024/03/05 07:08:51;;;;;;;55.58;23.98;;;8.50;99.90;;;;;;5052709;28;20046;-76
2024/03/05 07:11:31;;;;;;;48.50;22.30;;;8.50;99.90;;;;;;5039909;28;20108;-76
2024/03/05 07:13:57;;;;;;;49.90;22.65;;;8.60;99.90;;;;;;5052676;28;20407;-76
2024/03/05 07:16:23;;;;;;;53.00;23.55;;;8.60;99.90;;;;;;5054912;28;20045;-76
2024/03/05 07:18:55;;;;;;;47.83;23.10;;;8.60;99.90;;;;;;5073589;28;20064;-76
2024/03/05 07:21:22;;;;;;;48.50;22.58;;;8.60;99.90;;;;;;5046067;28;20044;-76
2024/03/05 07:23:52;;;;;;;46.30;22.35;;;8.60;99.90;;;;;;5072470;28;20098;-76
2024/03/05 07:26:18;;;;;;;49.53;21.63;;;8.70;99.90;;;;;;5054643;28;20040;-76
2024/03/05 07:28:44;;;;;;;47.38;22.58;;;8.70;99.90;;;;;;5037649;28;20399;-76
2024/03/05 07:31:14;;;;;;;49.95;22.63;;;9.60;99.90;;;;;;5071141;28;20041;-76
2024/03/05 07:33:40;;;;;;;49.53;22.88;;;8.70;99.90;;;;;;5056550;28;20037;-76
2024/03/05 07:36:06;;;;;;;57.05;24.52;;;9.60;99.90;;;;;;5072718;28;20048;-76
2024/03/05 07:38:33;;;;;;;52.95;23.98;;;8.70;99.90;;;;;;5053424;28;20526;-75
2024/03/05 07:40:59;;;;;;;54.80;24.35;;;8.80;99.90;;;;;;5069552;28;20040;-76
2024/03/05 07:43:28;;;;;;;55.60;23.98;;;8.80;99.90;;;;;;5052757;28;20155;-76
2024/03/05 07:45:54;;;;;;;55.25;25.00;;;8.80;99.90;;;;;;5062603;28;20082;-75
2024/03/05 07:48:20;;;;;;;56.65;25.83;;;8.80;99.90;;;;;;5053621;28;20044;-75
2024/03/05 07:50:46;;;;;;;55.78;24.75;;;8.80;99.90;;;;;;5056155;28;20495;-75
2024/03/05 07:53:12;;;;;;;60.00;24.80;;;8.80;99.90;;;;;;5056567;28;20134;-75
2024/03/05 07:55:39;;;;;;;57.85;24.38;;;8.80;99.90;;;;;;5057493;28;20097;-75
2024/03/05 07:58:06;;;;;;;54.47;24.35;;;8.90;99.90;;;;;;5074741;28;20842;-75
2024/03/05 08:00:32;;;;;;;57.75;24.95;;;8.80;99.90;;;;;;5033417;28;20044;-75
2024/03/05 08:03:03;;;;;;;55.28;25.13;;;8.90;99.90;;;;;;5056327;28;20128;-75
2024/03/05 08:05:29;;;;;;;52.40;23.10;;;8.90;99.90;;;;;;5070028;28;20075;-75
2024/03/05 08:08:01;;;;;;;58.05;24.40;;;9.30;99.90;;;;;;5056374;28;20499;-75
2024/03/05 08:10:27;;;;;;;53.47;23.70;;;9.00;99.90;;;;;;5050195;28;20123;-75
2024/03/05 08:12:55;;;;;;;55.40;23.17;;;9.00;99.90;;;;;;5056387;28;20587;-75
2024/03/05 08:15:21;;;;;;;55.40;25.05;;;9.00;99.90;;;;;;5073924;28;20043;-75
2024/03/05 08:17:49;;;;;;;53.53;23.60;;;9.00;99.90;;;;;;5055011;28;20051;-75
2024/03/05 08:20:25;;;;;;;47.50;24.67;;;9.00;99.90;;;;;;5073433;28;20044;-76
2024/03/05 08:22:52;;;;;;;50.17;23.65;;;9.10;99.90;;;;;;5057714;28;20032;-76
2024/03/05 08:25:19;;;;;;;54.30;24.33;;;9.10;99.90;;;;;;5057535;28;20036;-76
2024/03/05 08:27:59;;;;;;;50.58;23.88;;;9.10;99.90;;;;;;5041426;28;20080;-75
2024/03/05 08:30:29;;;;;;;51.47;24.02;;;9.10;99.90;;;;;;5072865;28;20509;-77
2024/03/05 08:32:55;;;;;;;50.53;23.30;;;9.10;99.90;;;;;;5056353;28;20122;-75
2024/03/05 08:35:22;;;;;;;52.72;23.70;;;9.70;99.90;;;;;;5048667;28;20040;-75
2024/03/05 08:37:49;;;;;;;55.35;24.75;;;9.10;99.90;;;;;;5073636;28;20048;-74
2024/03/05 08:40:21;;;;;;;52.22;24.27;;;9.20;99.90;;;;;;5072774;28;20045;-75
2024/03/05 08:42:50;;;;;;;52.33;23.88;;;9.20;99.90;;;;;;5032797;28;20402;-75
2024/03/05 08:45:22;;;;;;;51.58;24.42;;;9.20;99.90;;;;;;5048703;28;20080;-75
2024/03/05 08:47:50;;;;;;;53.03;24.77;;;9.20;99.90;;;;;;5055253;28;20056;-75
2024/03/05 08:50:21;;;;;;;53.63;24.45;;;9.20;99.90;;;;;;5066541;28;21170;-75
2024/03/05 08:52:48;;;;;;;49.55;23.80;;;8.50;99.90;;;;;;5073137;28;20505;-76
2024/03/05 08:55:15;;;;;;;48.15;24.05;;;9.30;99.90;;;;;;5073254;28;20639;-75
2024/03/05 08:57:44;;;;;;;50.30;24.10;;;9.30;99.90;;;;;;5056205;28;20048;-75
2024/03/05 09:00:17;;;;;;;53.72;23.25;;;9.30;99.90;;;;;;5056564;28;20045;-75
2024/03/05 09:02:45;;;;;;;50.08;25.27;;;9.30;99.90;;;;;;5039114;28;20371;-75
2024/03/05 09:05:11;;;;;;;50.72;24.52;;;9.20;99.90;;;;;;5037929;28;20033;-75
2024/03/05 09:07:41;;;;;;;56.70;24.13;;;9.40;99.90;;;;;;5071745;28;20040;-75
2024/03/05 09:10:09;;;;;;;50.92;24.40;;;9.40;99.90;;;;;;5054489;28;20514;-75
2024/03/05 09:12:35;;;;;;;50.45;23.85;;;9.40;99.90;;;;;;5054287;28;20048;-75
2024/03/05 09:15:02;;;;;;;51.35;25.05;;;9.40;99.90;;;;;;5054678;28;20127;-75
2024/03/05 09:17:28;;;;;;;56.78;26.23;;;9.40;99.90;;;;;;5038532;28;20047;-75
2024/03/05 09:19:54;;;;;;;55.70;25.52;;;9.50;99.90;;;;;;5037761;28;20045;-75
2024/03/05 09:22:20;;;;;;;50.53;24.27;;;10.20;99.90;;;;;;5072843;28;20036;-75
2024/03/05 09:24:46;;;;;;;54.95;27.58;;;9.50;99.90;;;;;;5075955;28;20036;-75
2024/03/05 09:27:12;;;;;;;50.67;25.58;;;9.50;99.90;;;;;;5054683;28;20044;-76
2024/03/05 09:29:38;;;;;;;51.63;26.27;;;9.50;99.90;;;;;;5072413;28;20032;-75
2024/03/05 09:32:08;;;;;;;51.75;24.00;;;9.50;99.90;;;;;;5054915;28;20147;-75
2024/03/05 09:37:56;;;;;;;48.40;23.83;;;9.50;99.90;;;;;;5055271;28;20539;-75
2024/03/05 09:40:23;;;;;;;52.38;25.42;;;9.50;99.90;;;;;;5055356;28;20304;-75
2024/03/05 09:42:54;;;;;;;49.67;24.05;;;9.60;99.90;;;;;;5054663;28;20494;-75
2024/03/05 09:45:23;;;;;;;46.97;25.33;;;9.60;99.90;;;;;;5046222;28;20076;-75
2024/03/05 09:47:50;;;;;;;46.35;23.65;;;9.60;99.90;;;;;;5038723;28;20383;-75
2024/03/05 09:50:17;;;;;;;46.47;23.58;;;9.60;99.90;;;;;;5072150;28;20044;-75
2024/03/05 09:52:46;;;;;;;47.78;23.63;;;9.60;99.90;;;;;;5039231;28;20119;-75
2024/03/05 09:55:12;;;;;;;47.88;22.92;;;9.60;99.90;;;;;;5071890;28;20039;-75
2024/03/05 09:57:39;;;;;;;46.78;22.50;;;9.60;99.90;;;;;;5056328;28;21153;-75
2024/03/05 10:00:10;;;;;;;42.30;22.02;;;9.60;99.90;;;;;;5073319;28;20045;-75
2024/03/05 10:02:37;;;;;;;45.30;22.33;;;9.60;99.90;;;;;;5037436;28;20041;-75
2024/03/05 10:05:04;;;;;;;45.30;22.95;;;9.60;99.90;;;;;;5073239;28;20037;-75
2024/03/05 10:07:31;;;;;;;44.47;22.73;;;9.60;99.90;;;;;;5072441;28;20039;-75
2024/03/05 10:10:09;;;;;;;45.58;22.50;;;9.60;99.90;;;;;;5072729;28;20043;-75
2024/03/05 10:12:41;;;;;;;40.22;21.63;;;9.60;99.90;;;;;;5061611;28;20044;-75
2024/03/05 10:15:13;;;;;;;43.38;22.23;;;9.60;99.90;;;;;;5054113;28;20044;-75
2024/03/05 10:17:49;;;;;;;42.22;22.45;;;9.60;99.90;;;;;;5054518;28;20086;-75
2024/03/05 10:20:32;;;;;;;41.40;22.38;;;9.60;99.90;;;;;;5038780;28;20036;-75
2024/03/05 10:23:00;;;;;;;46.20;22.10;;;9.60;99.90;;;;;;5054246;28;20406;-75
2024/03/05 10:25:28;;;;;;;45.20;23.05;;;9.50;99.90;;;;;;5072542;28;20041;-75
2024/03/05 10:27:55;;;;;;;42.35;21.95;;;9.50;99.90;;;;;;5092848;22;20087;-78
2024/03/05 10:30:21;;;;;;;40.45;21.80;;;9.50;99.90;;;;;;5043398;28;20036;-78
2024/03/05 10:32:55;;;;;;;43.00;22.23;;;9.60;99.90;;;;;;5042267;28;20407;-78
2024/03/05 10:35:21;;;;;;;43.72;22.63;;;9.50;99.90;;;;;;5060118;28;20059;-77
2024/03/05 10:38:08;;;;;;;43.50;23.25;;;9.50;99.90;;;;;;5043676;28;20049;-78
2024/03/05 10:40:37;;;;;;;44.03;21.38;;;9.60;99.90;;;;;;5019282;28;20033;-78
2024/03/05 10:43:07;;;;;;;42.13;21.77;;;9.60;99.90;;;;;;5018212;28;20048;-77
2024/03/05 10:45:34;;;;;;;44.60;22.42;;;9.60;99.90;;;;;;5037900;28;20161;-77
2024/03/05 10:48:01;;;;;;;42.72;22.75;;;9.60;99.90;;;;;;5025832;28;20079;-78
2024/03/05 10:50:27;;;;;;;48.40;24.17;;;9.60;99.90;;;;;;5017352;28;20041;-78
2024/03/05 10:52:57;;;;;;;46.97;23.92;;;9.60;99.90;;;;;;5043327;28;20041;-77
2024/03/05 10:55:23;;;;;;;43.78;23.10;;;9.70;99.90;;;;;;5027245;28;20411;-78
2024/03/05 11:00:35;;;;;;;43.75;23.63;;;9.60;99.90;;;;;;5009205;28;20079;-78
2024/03/05 11:03:09;;;;;;;47.05;23.95;;;9.70;99.90;;;;;;5022752;28;20060;-78
2024/03/05 11:05:47;;;;;;;43.97;22.02;;;9.70;99.90;;;;;;5036721;28;20108;-78
2024/03/05 11:08:17;;;;;;;46.20;23.48;;;9.70;99.90;;;;;;5021481;28;20086;-78
2024/03/05 11:10:49;;;;;;;42.63;22.83;;;9.70;99.90;;;;;;5035582;28;20488;-78
2024/03/05 11:13:16;;;;;;;42.03;21.50;;;9.70;99.90;;;;;;5022320;28;20124;-78
2024/03/05 11:15:43;;;;;;;45.95;23.25;;;9.70;99.90;;;;;;5022268;28;20049;-78
2024/03/05 11:18:31;;;;;;;44.83;22.17;;;9.70;99.90;;;;;;5019931;28;20041;-78
2024/03/05 11:20:59;;;;;;;42.03;21.98;;;9.70;99.90;;;;;;5039665;28;20037;-78
2024/03/05 11:23:27;;;;;;;42.85;21.60;;;9.70;99.90;;;;;;5042890;28;20026;-78
2024/03/05 11:26:00;;;;;;;45.38;22.83;;;9.80;99.90;;;;;;5022993;28;20491;-78
2024/03/05 11:28:26;;;;;;;45.80;22.73;;;9.70;99.90;;;;;;5035130;28;20041;-77
2024/03/05 11:31:17;;;;;;;48.38;22.75;;;9.70;99.90;;;;;;5046146;28;20040;-78
2024/03/05 11:33:51;;;;;;;46.67;24.23;;;9.70;99.90;;;;;;5036790;28;20038;-78
2024/03/05 11:36:22;;;;;;;48.22;23.35;;;9.70;99.90;;;;;;5041183;28;20399;-78
2024/03/05 11:38:57;;;;;;;48.92;23.75;;;9.70;99.90;;;;;;5034172;28;20034;-78
2024/03/05 11:41:24;;;;;;;43.60;22.02;;;9.70;99.90;;;;;;5040057;28;20040;-78
2024/03/05 11:43:50;;;;;;;44.80;23.02;;;9.70;99.90;;;;;;5036810;28;20033;-78
2024/03/05 11:46:39;;;;;;;49.08;23.67;;;9.70;99.90;;;;;;5040381;28;20063;-78
2024/03/05 11:49:05;;;;;;;45.80;22.75;;;9.70;99.90;;;;;;5044434;28;20051;-77
2024/03/05 11:51:31;;;;;;;45.83;22.90;;;9.60;99.90;;;;;;5034723;28;20119;-77
2024/03/05 11:53:56;;;;;;;50.60;23.17;;;10.00;99.90;;;;;;5033499;28;20528;-76
2024/03/05 11:56:22;;;;;;;46.95;23.55;;;9.60;99.90;;;;;;5020751;28;20175;-78
2024/03/05 11:58:55;;;;;;;45.22;23.85;;;9.60;99.90;;;;;;5041601;28;20377;-78
2024/03/05 12:01:24;;;;;;;51.35;24.55;;;9.60;99.90;;;;;;5037065;28;20467;-78
2024/03/05 12:04:07;;;;;;;54.00;24.67;;;9.60;99.90;;;;;;5022235;28;20068;-77
2024/03/05 12:06:34;;;;;;;47.83;24.08;;;9.60;99.90;;;;;;5038275;28;20387;-78
2024/03/05 12:09:20;;;;;;;55.17;26.08;;;9.60;99.90;;;;;;5035927;28;20087;-78
2024/03/05 12:12:09;;;;;;;51.25;24.48;;;9.60;99.90;;;;;;5042146;28;20108;-78
2024/03/05 12:14:37;;;;;;;50.78;24.27;;;9.60;99.90;;;;;;5036397;28;20103;-77
2024/03/05 12:17:06;;;;;;;56.05;25.30;;;9.60;99.90;;;;;;5039308;28;20044;-79
2024/03/05 12:19:34;;;;;;;52.67;24.15;;;9.60;99.90;;;;;;5021952;28;20116;-79
2024/03/05 12:22:00;;;;;;;54.60;24.90;;;9.60;99.90;;;;;;5038822;28;20491;-78
2024/03/05 12:24:31;;;;;;;48.92;25.00;;;9.60;99.90;;;;;;5030186;28;20431;-78
2024/03/05 12:26:57;;;;;;;56.97;31.50;;;9.60;99.90;;;;;;4996428;28;1050154;-77
2024/03/05 12:29:40;;;;;;;73.22;35.95;;;9.60;99.90;;;;;;5012025;28;20284;-78
2024/03/05 12:32:13;;;;;;;75.25;39.38;;;9.60;99.90;;;;;;4997205;28;20050;-78
2024/03/05 12:34:43;;;;;;;60.97;31.67;;;9.60;99.90;;;;;;5030810;28;20041;-77
2024/03/05 12:37:12;;;;;;;59.33;29.77;;;9.60;99.90;;;;;;5029758;28;20033;-79
2024/03/05 12:39:39;;;;;;;56.70;28.88;;;9.60;99.90;;;;;;5034401;28;20034;-78
2024/03/05 12:42:11;;;;;;;54.00;26.45;;;9.60;99.90;;;;;;5029390;28;20045;-78
2024/03/05 12:44:37;;;;;;;53.67;27.73;;;9.60;99.90;;;;;;5015395;28;20037;-78
2024/03/05 12:47:03;;;;;;;59.92;27.42;;;9.60;99.90;;;;;;5011187;28;20407;-77
2024/03/05 12:49:29;;;;;;;55.55;27.88;;;9.60;99.90;;;;;;5033904;28;20123;-78
2024/03/05 12:52:02;;;;;;;54.50;25.83;;;9.60;99.90;;;;;;5032538;28;20156;-80
2024/03/05 12:54:28;;;;;;;57.30;27.65;;;9.60;99.90;;;;;;4998591;28;20060;-78
2024/03/05 12:56:55;;;;;;;58.03;26.77;;;9.60;99.90;;;;;;5032324;28;20761;-77
2024/03/05 12:59:21;;;;;;;56.03;27.10;;;9.60;99.90;;;;;;5034036;28;20104;-78